Shannondale, Missouri
Current Conditions -  °F | °C
As of 1:58 AM on Thursday 18 Dec 2014 (Local Time) from KTBN Reporting Station
Freezing Drizzle Freezing Drizzle  
Wind Chill: 31°   Ceiling: 700
Heat Index: 31°   Visibility: 4mi
Dew Point: 31°   Wind: 2mph
Humidity: 100%   Direction: 60°ENE
Pressure: 30.21"   Gusts: NA
Location:  37.5023°N, 91.4546°W
Report Text: KTBN 180758Z AUTO 06002KT 4SM -FZDZ BR OVC007 00/00 A3021 RMK AO2 RAB0730E0742FZDZB0742UPB0727E0730 CIG 003 RWY32 SLP243 P0000 T10051005
Loading
Personal Weather Stations






























Interactive Weather Map New forecast layout! Learn more

10-Day Weather Forecast

Advertisements
Track Severe Weather on mobile